sensor_id;sensor_type;location;lat;lon;timestamp;pressure;altitude;pressure_sealevel;temperature;humidity
67931;BME280;63902;52.000;5.954;2023-02-22T00:00:22;101151.59;;;5.91;100.00
67931;BME280;63902;52.000;5.954;2023-02-22T00:01:22;101158.59;;;5.92;100.00
67931;BME280;63902;52.000;5.954;2023-02-22T00:02:23;101155.97;;;5.91;100.00
67931;BME280;63902;52.000;5.954;2023-02-22T00:03:25;101157.72;;;5.92;100.00
67931;BME280;63902;52.000;5.954;2023-02-22T00:04:26;101155.16;;;5.87;100.00
67931;BME280;63902;52.000;5.954;2023-02-22T00:05:27;101138.56;;;5.82;100.00
67931;BME280;63902;52.000;5.954;2023-02-22T00:06:29;101149.03;;;5.88;100.00
67931;BME280;63902;52.000;5.954;2023-02-22T00:07:29;101155.09;;;5.90;100.00
67931;BME280;63902;52.000;5.954;2023-02-22T00:08:31;101152.50;;;5.89;100.00
67931;BME280;63902;52.000;5.954;2023-02-22T00:09:32;101159.56;;;5.88;100.00
67931;BME280;63902;52.000;5.954;2023-02-22T00:10:33;101157.78;;;5.87;100.00
67931;BME280;63902;52.000;5.954;2023-02-22T00:11:34;101158.69;;;5.86;100.00
67931;BME280;63902;52.000;5.954;2023-02-22T00:12:34;101157.84;;;5.86;100.00
67931;BME280;63902;52.000;5.954;2023-02-22T00:13:35;101163.09;;;5.86;100.00
67931;BME280;63902;52.000;5.954;2023-02-22T00:14:36;101169.22;;;5.84;100.00
67931;BME280;63902;52.000;5.954;2023-02-22T00:15:36;101162.25;;;5.83;100.00
67931;BME280;63902;52.000;5.954;2023-02-22T00:16:37;101162.25;;;5.83;100.00
67931;BME280;63902;52.000;5.954;2023-02-22T00:17:37;101164.03;;;5.81;100.00
67931;BME280;63902;52.000;5.954;2023-02-22T00:18:38;101164.94;;;5.80;100.00
67931;BME280;63902;52.000;5.954;2023-02-22T00:19:38;101165.78;;;5.81;100.00
67931;BME280;63902;52.000;5.954;2023-02-22T00:20:39;101159.63;;;5.82;100.00
67931;BME280;63902;52.000;5.954;2023-02-22T00:21:41;101157.88;;;5.82;100.00
67931;BME280;63902;52.000;5.954;2023-02-22T00:22:43;101152.63;;;5.79;100.00
67931;BME280;63902;52.000;5.954;2023-02-22T00:23:45;101157.00;;;5.82;100.00
67931;BME280;63902;52.000;5.954;2023-02-22T00:24:46;101141.31;;;5.76;100.00
67931;BME280;63902;52.000;5.954;2023-02-22T00:25:48;101150.91;;;5.78;100.00
67931;BME280;63902;52.000;5.954;2023-02-22T00:26:50;101153.53;;;5.78;100.00
67931;BME280;63902;52.000;5.954;2023-02-22T00:27:51;101157.03;;;5.79;100.00
67931;BME280;63902;52.000;5.954;2023-02-22T00:28:53;101156.19;;;5.77;100.00
67931;BME280;63902;52.000;5.954;2023-02-22T00:29:53;101149.19;;;5.76;100.00
67931;BME280;63902;52.000;5.954;2023-02-22T00:30:53;101148.34;;;5.75;100.00
67931;BME280;63902;52.000;5.954;2023-02-22T00:31:54;101149.25;;;5.74;100.00
67931;BME280;63902;52.000;5.954;2023-02-22T00:32:55;101162.31;;;5.79;100.00
67931;BME280;63902;52.000;5.954;2023-02-22T00:33:56;101150.97;;;5.74;100.00
67931;BME280;63902;52.000;5.954;2023-02-22T00:34:56;101161.44;;;5.78;100.00
67931;BME280;63902;52.000;5.954;2023-02-22T00:35:57;101147.47;;;5.73;100.00
67931;BME280;63902;52.000;5.954;2023-02-22T00:36:59;101163.16;;;5.79;100.00
67931;BME280;63902;52.000;5.954;2023-02-22T00:38:01;101144.00;;;5.71;100.00
67931;BME280;63902;52.000;5.954;2023-02-22T00:39:01;101158.81;;;5.77;100.00
67931;BME280;63902;52.000;5.954;2023-02-22T00:40:02;101153.56;;;5.77;100.00
67931;BME280;63902;52.000;5.954;2023-02-22T00:41:03;101157.09;;;5.76;100.00
67931;BME280;63902;52.000;5.954;2023-02-22T00:42:04;101146.59;;;5.74;100.00
67931;BME280;63902;52.000;5.954;2023-02-22T00:43:05;101156.22;;;5.75;100.00
67931;BME280;63902;52.000;5.954;2023-02-22T00:44:05;101153.59;;;5.74;100.00
67931;BME280;63902;52.000;5.954;2023-02-22T00:45:06;101149.25;;;5.73;100.00
67931;BME280;63902;52.000;5.954;2023-02-22T00:46:07;101158.00;;;5.73;100.00
67931;BME280;63902;52.000;5.954;2023-02-22T00:47:08;101157.16;;;5.73;100.00
67931;BME280;63902;52.000;5.954;2023-02-22T00:48:09;101154.50;;;5.73;100.00
67931;BME280;63902;52.000;5.954;2023-02-22T00:49:10;101156.25;;;5.74;100.00
67931;BME280;63902;52.000;5.954;2023-02-22T00:50:11;101151.88;;;5.73;100.00
67931;BME280;63902;52.000;5.954;2023-02-22T00:51:11;101156.25;;;5.74;100.00
67931;BME280;63902;52.000;5.954;2023-02-22T00:52:13;101147.53;;;5.72;100.00
67931;BME280;63902;52.000;5.954;2023-02-22T00:53:14;101149.25;;;5.71;100.00
67931;BME280;63902;52.000;5.954;2023-02-22T00:54:14;101148.41;;;5.71;100.00
67931;BME280;63902;52.000;5.954;2023-02-22T00:55:17;101145.81;;;5.69;100.00
67931;BME280;63902;52.000;5.954;2023-02-22T00:56:17;101146.63;;;5.71;100.00
67931;BME280;63902;52.000;5.954;2023-02-22T00:57:18;101143.13;;;5.71;100.00
67931;BME280;63902;52.000;5.954;2023-02-22T00:58:19;101145.81;;;5.69;100.00
67931;BME280;63902;52.000;5.954;2023-02-22T00:59:19;101143.22;;;5.66;100.00
67931;BME280;63902;52.000;5.954;2023-02-22T01:00:23;101150.19;;;5.69;100.00
67931;BME280;63902;52.000;5.954;2023-02-22T01:01:24;101145.84;;;5.66;100.00
67931;BME280;63902;52.000;5.954;2023-02-22T01:02:24;101155.47;;;5.66;100.00
67931;BME280;63902;52.000;5.954;2023-02-22T01:03:25;101149.41;;;5.64;100.00
67931;BME280;63902;52.000;5.954;2023-02-22T01:04:25;101143.22;;;5.65;100.00
67931;BME280;63902;52.000;5.954;2023-02-22T01:05:27;101145.88;;;5.65;100.00
67931;BME280;63902;52.000;5.954;2023-02-22T01:06:28;101151.13;;;5.65;100.00
67931;BME280;63902;52.000;5.954;2023-02-22T01:07:30;101137.22;;;5.58;100.00
67931;BME280;63902;52.000;5.954;2023-02-22T01:08:30;101143.28;;;5.61;100.00
67931;BME280;63902;52.000;5.954;2023-02-22T01:09:31;101140.66;;;5.61;100.00
67931;BME280;63902;52.000;5.954;2023-02-22T01:10:32;101143.28;;;5.61;100.00
67931;BME280;63902;52.000;5.954;2023-02-22T01:11:32;101138.06;;;5.58;100.00
67931;BME280;63902;52.000;5.954;2023-02-22T01:12:33;101138.94;;;5.60;100.00
67931;BME280;63902;52.000;5.954;2023-02-22T01:13:34;101142.44;;;5.59;100.00
67931;BME280;63902;52.000;5.954;2023-02-22T01:14:34;101134.56;;;5.58;100.00
67931;BME280;63902;52.000;5.954;2023-02-22T01:15:36;101134.56;;;5.58;100.00
67931;BME280;63902;52.000;5.954;2023-02-22T01:16:37;101131.94;;;5.56;100.00
67931;BME280;63902;52.000;5.954;2023-02-22T01:17:38;101127.59;;;5.55;100.00
67931;BME280;63902;52.000;5.954;2023-02-22T01:18:39;101130.19;;;5.58;100.00
67931;BME280;63902;52.000;5.954;2023-02-22T01:19:40;101134.63;;;5.53;100.00
67931;BME280;63902;52.000;5.954;2023-02-22T01:20:40;101134.59;;;5.56;100.00
67931;BME280;63902;52.000;5.954;2023-02-22T01:21:40;101131.94;;;5.56;100.00
67931;BME280;63902;52.000;5.954;2023-02-22T01:22:45;101128.47;;;5.56;100.00
67931;BME280;63902;52.000;5.954;2023-02-22T01:23:46;101129.31;;;5.56;100.00
67931;BME280;63902;52.000;5.954;2023-02-22T01:24:46;101125.84;;;5.54;100.00
67931;BME280;63902;52.000;5.954;2023-02-22T01:25:47;101122.34;;;5.55;100.00
67931;BME280;63902;52.000;5.954;2023-02-22T01:26:50;101120.56;;;5.54;100.00
67931;BME280;63902;52.000;5.954;2023-02-22T01:27:51;101128.47;;;5.56;100.00
67931;BME280;63902;52.000;5.954;2023-02-22T01:28:52;101119.72;;;5.54;100.00
67931;BME280;63902;52.000;5.954;2023-02-22T01:29:52;101115.31;;;5.56;100.00
67931;BME280;63902;52.000;5.954;2023-02-22T01:30:53;101117.94;;;5.56;100.00
67931;BME280;63902;52.000;5.954;2023-02-22T01:31:54;101119.75;;;5.51;100.00
67931;BME280;63902;52.000;5.954;2023-02-22T01:32:55;101128.50;;;5.53;100.00
67931;BME280;63902;52.000;5.954;2023-02-22T01:33:56;101120.63;;;5.51;100.00
67931;BME280;63902;52.000;5.954;2023-02-22T01:34:56;101117.19;;;5.49;100.00
67931;BME280;63902;52.000;5.954;2023-02-22T01:35:57;101111.09;;;5.44;100.00
67931;BME280;63902;52.000;5.954;2023-02-22T01:36:58;101107.56;;;5.45;100.00
67931;BME280;63902;52.000;5.954;2023-02-22T01:38:00;101111.00;;;5.50;100.00
67931;BME280;63902;52.000;5.954;2023-02-22T01:39:00;101112.78;;;5.48;100.00
67931;BME280;63902;52.000;5.954;2023-02-22T01:40:01;101109.28;;;5.49;100.00
67931;BME280;63902;52.000;5.954;2023-02-22T01:41:04;101114.53;;;5.49;100.00
67931;BME280;63902;52.000;5.954;2023-02-22T01:42:04;101112.78;;;5.48;100.00
67931;BME280;63902;52.000;5.954;2023-02-22T01:43:15;101107.56;;;5.47;100.00
67931;BME280;63902;52.000;5.954;2023-02-22T01:44:19;101107.56;;;5.47;100.00
67931;BME280;63902;52.000;5.954;2023-02-22T01:47:00;101098.00;;;5.39;100.00
67931;BME280;63902;52.000;5.954;2023-02-22T01:48:04;101107.56;;;5.45;100.00
67931;BME280;63902;52.000;5.954;2023-02-22T01:49:05;101104.06;;;5.46;100.00
67931;BME280;63902;52.000;5.954;2023-02-22T01:50:06;101108.44;;;5.47;100.00
67931;BME280;63902;52.000;5.954;2023-02-22T01:51:11;101103.16;;;5.47;100.00
67931;BME280;63902;52.000;5.954;2023-02-22T01:52:14;101106.69;;;5.46;100.00
67931;BME280;63902;52.000;5.954;2023-02-22T01:53:18;101074.44;;;5.32;100.00
67931;BME280;63902;52.000;5.954;2023-02-22T01:54:24;101102.31;;;5.47;100.00
67931;BME280;63902;52.000;5.954;2023-02-22T01:55:25;101110.19;;;5.45;100.00
67931;BME280;63902;52.000;5.954;2023-02-22T01:56:28;101106.72;;;5.45;100.00
67931;BME280;63902;52.000;5.954;2023-02-22T01:57:33;101096.19;;;5.43;100.00
67931;BME280;63902;52.000;5.954;2023-02-22T01:58:37;101096.19;;;5.43;100.00
67931;BME280;63902;52.000;5.954;2023-02-22T01:59:42;101087.53;;;5.38;100.00
67931;BME280;63902;52.000;5.954;2023-02-22T02:00:43;101098.00;;;5.41;100.00
67931;BME280;63902;52.000;5.954;2023-02-22T02:01:44;101086.69;;;5.34;100.00
67931;BME280;63902;52.000;5.954;2023-02-22T02:02:48;101088.41;;;5.37;100.00
67931;BME280;63902;52.000;5.954;2023-02-22T02:03:51;101085.78;;;5.37;100.00
67931;BME280;63902;52.000;5.954;2023-02-22T02:04:55;101088.41;;;5.37;100.00
67931;BME280;63902;52.000;5.954;2023-02-22T02:06:00;101086.69;;;5.34;100.00
67931;BME280;63902;52.000;5.954;2023-02-22T02:07:03;101082.31;;;5.35;100.00
67931;BME280;63902;52.000;5.954;2023-02-22T02:08:13;101080.56;;;5.34;100.00
67931;BME280;63902;52.000;5.954;2023-02-22T02:09:20;101085.81;;;5.34;100.00
67931;BME280;63902;52.000;5.954;2023-02-22T02:10:22;101091.94;;;5.34;100.00
67931;BME280;63902;52.000;5.954;2023-02-22T02:11:23;101086.69;;;5.34;100.00
67931;BME280;63902;52.000;5.954;2023-02-22T02:12:26;101080.56;;;5.34;100.00
67931;BME280;63902;52.000;5.954;2023-02-22T02:13:28;101082.34;;;5.33;100.00
67931;BME280;63902;52.000;5.954;2023-02-22T02:14:28;101080.63;;;5.31;100.00
67931;BME280;63902;52.000;5.954;2023-02-22T02:15:30;101079.72;;;5.32;100.00
67931;BME280;63902;52.000;5.954;2023-02-22T02:16:36;101077.13;;;5.30;100.00
67931;BME280;63902;52.000;5.954;2023-02-22T02:17:37;101086.78;;;5.30;100.00
67931;BME280;63902;52.000;5.954;2023-02-22T02:18:38;101086.78;;;5.28;100.00
67931;BME280;63902;52.000;5.954;2023-02-22T02:19:44;101083.31;;;5.26;100.00
67931;BME280;63902;52.000;5.954;2023-02-22T02:22:18;101081.63;;;5.24;100.00
67931;BME280;63902;52.000;5.954;2023-02-22T02:25:18;101074.69;;;5.16;100.00
67931;BME280;63902;52.000;5.954;2023-02-22T02:26:56;101071.22;;;5.16;100.00
67931;BME280;63902;52.000;5.954;2023-02-22T02:28:16;101072.06;;;5.15;100.00
67931;BME280;63902;52.000;5.954;2023-02-22T02:29:50;101067.72;;;5.15;100.00
67931;BME280;63902;52.000;5.954;2023-02-22T02:31:30;101070.34;;;5.15;100.00
67931;BME280;63902;52.000;5.954;2023-02-22T02:32:47;101061.56;;;5.15;100.00
67931;BME280;63902;52.000;5.954;2023-02-22T02:33:54;101063.31;;;5.14;100.00
67931;BME280;63902;52.000;5.954;2023-02-22T02:35:00;101070.34;;;5.15;100.00
67931;BME280;63902;52.000;5.954;2023-02-22T02:36:08;101065.09;;;5.15;100.00
67931;BME280;63902;52.000;5.954;2023-02-22T02:37:20;101039.00;;;5.00;100.00
67931;BME280;63902;52.000;5.954;2023-02-22T02:38:30;101068.63;;;5.13;100.00
67931;BME280;63902;52.000;5.954;2023-02-22T02:39:35;101057.25;;;5.11;100.00
67931;BME280;63902;52.000;5.954;2023-02-22T02:40:43;101051.22;;;5.04;100.00
67931;BME280;63902;52.000;5.954;2023-02-22T02:41:48;101051.22;;;5.03;100.00
67931;BME280;63902;52.000;5.954;2023-02-22T02:42:54;101059.94;;;5.06;100.00
67931;BME280;63902;52.000;5.954;2023-02-22T02:44:00;101053.81;;;5.06;100.00
67931;BME280;63902;52.000;5.954;2023-02-22T02:45:04;101044.19;;;5.05;100.00
67931;BME280;63902;52.000;5.954;2023-02-22T02:46:10;101052.94;;;5.05;100.00
67931;BME280;63902;52.000;5.954;2023-02-22T02:47:13;101049.47;;;5.05;100.00
67931;BME280;63902;52.000;5.954;2023-02-22T02:48:20;101044.22;;;5.03;100.00
67931;BME280;63902;52.000;5.954;2023-02-22T02:49:29;101048.63;;;5.01;100.00
67931;BME280;63902;52.000;5.954;2023-02-22T02:50:35;101044.25;;;5.00;100.00
67931;BME280;63902;52.000;5.954;2023-02-22T02:51:40;101044.25;;;5.00;100.00
67931;BME280;63902;52.000;5.954;2023-02-22T02:52:44;101039.91;;;4.99;100.00
67931;BME280;63902;52.000;5.954;2023-02-22T02:53:47;101045.16;;;4.99;100.00
67931;BME280;63902;52.000;5.954;2023-02-22T02:54:49;101041.69;;;4.97;100.00
67931;BME280;63902;52.000;5.954;2023-02-22T02:55:50;101029.44;;;4.96;100.00
67931;BME280;63902;52.000;5.954;2023-02-22T02:56:50;101041.69;;;4.97;100.00
67931;BME280;63902;52.000;5.954;2023-02-22T02:57:50;101038.19;;;4.95;100.00
67931;BME280;63902;52.000;5.954;2023-02-22T02:58:52;101038.19;;;4.95;100.00
67931;BME280;63902;52.000;5.954;2023-02-22T02:59:53;101029.47;;;4.93;100.00
67931;BME280;63902;52.000;5.954;2023-02-22T03:00:56;101021.59;;;4.93;100.00
67931;BME280;63902;52.000;5.954;2023-02-22T03:02:09;101022.50;;;4.90;100.00
67931;BME280;63902;52.000;5.954;2023-02-22T03:03:28;101029.44;;;4.94;100.00
67931;BME280;63902;52.000;5.954;2023-02-22T03:04:45;101025.09;;;4.93;100.00
67931;BME280;63902;52.000;5.954;2023-02-22T03:05:59;101026.81;;;4.94;100.00
67931;BME280;63902;52.000;5.954;2023-02-22T03:07:13;101029.44;;;4.94;100.00
67931;BME280;63902;52.000;5.954;2023-02-22T03:08:23;101012.03;;;4.87;100.00
67931;BME280;63902;52.000;5.954;2023-02-22T03:09:38;101024.19;;;4.94;100.00
67931;BME280;63902;52.000;5.954;2023-02-22T03:10:49;101024.22;;;4.93;100.00
67931;BME280;63902;52.000;5.954;2023-02-22T03:11:59;101013.81;;;4.84;100.00
67931;BME280;63902;52.000;5.954;2023-02-22T03:13:08;101023.34;;;4.92;100.00
67931;BME280;63902;52.000;5.954;2023-02-22T03:14:21;101016.44;;;4.84;100.00
67931;BME280;63902;52.000;5.954;2023-02-22T03:15:33;101021.66;;;4.88;100.00
67931;BME280;63902;52.000;5.954;2023-02-22T03:16:43;101022.56;;;4.87;100.00
67931;BME280;63902;52.000;5.954;2023-02-22T03:17:48;101020.78;;;4.88;100.00
67931;BME280;63902;52.000;5.954;2023-02-22T03:18:55;101025.16;;;4.89;100.00
67931;BME280;63902;52.000;5.954;2023-02-22T03:20:01;101017.25;;;4.89;100.00
67931;BME280;63902;52.000;5.954;2023-02-22T03:21:09;101018.22;;;4.85;100.00
67931;BME280;63902;52.000;5.954;2023-02-22T03:22:16;101023.41;;;4.88;100.00
67931;BME280;63902;52.000;5.954;2023-02-22T03:23:22;101018.13;;;4.89;100.00
67931;BME280;63902;52.000;5.954;2023-02-22T03:24:28;101019.88;;;4.89;100.00
67931;BME280;63902;52.000;5.954;2023-02-22T03:25:33;101019.03;;;4.88;100.00
67931;BME280;63902;52.000;5.954;2023-02-22T03:26:39;101019.03;;;4.87;100.00
67931;BME280;63902;52.000;5.954;2023-02-22T03:27:42;101014.69;;;4.86;100.00
67931;BME280;63902;52.000;5.954;2023-02-22T03:28:47;101009.53;;;4.78;100.00
67931;BME280;63902;52.000;5.954;2023-02-22T03:29:52;101012.06;;;4.84;100.00
67931;BME280;63902;52.000;5.954;2023-02-22T03:30:57;101013.81;;;4.85;100.00
67931;BME280;63902;52.000;5.954;2023-02-22T03:31:58;101012.97;;;4.85;100.00
67931;BME280;63902;52.000;5.954;2023-02-22T03:33:03;101013.88;;;4.81;100.00
67931;BME280;63902;52.000;5.954;2023-02-22T03:34:09;101012.09;;;4.83;100.00
67931;BME280;63902;52.000;5.954;2023-02-22T03:35:17;101006.03;;;4.78;100.00
67931;BME280;63902;52.000;5.954;2023-02-22T03:36:21;101018.16;;;4.86;100.00
67931;BME280;63902;52.000;5.954;2023-02-22T03:37:25;101014.69;;;4.86;100.00
67931;BME280;63902;52.000;5.954;2023-02-22T03:38:28;101008.63;;;4.81;100.00
67931;BME280;63902;52.000;5.954;2023-02-22T03:39:31;101019.03;;;4.87;100.00
67931;BME280;63902;52.000;5.954;2023-02-22T03:40:37;101025.19;;;4.86;100.00
67931;BME280;63902;52.000;5.954;2023-02-22T03:41:39;101020.84;;;4.85;100.00
67931;BME280;63902;52.000;5.954;2023-02-22T03:42:44;101008.66;;;4.79;100.00
67931;BME280;63902;52.000;5.954;2023-02-22T03:43:48;101016.44;;;4.84;100.00
67931;BME280;63902;52.000;5.954;2023-02-22T03:44:50;101013.81;;;4.84;100.00
67931;BME280;63902;52.000;5.954;2023-02-22T03:45:53;101014.72;;;4.83;100.00
67931;BME280;63902;52.000;5.954;2023-02-22T03:46:55;101015.59;;;4.83;100.00
67931;BME280;63902;52.000;5.954;2023-02-22T03:48:02;101014.72;;;4.83;100.00
67931;BME280;63902;52.000;5.954;2023-02-22T03:49:10;101012.09;;;4.83;100.00
67931;BME280;63902;52.000;5.954;2023-02-22T03:50:16;101006.03;;;4.79;100.00
67931;BME280;63902;52.000;5.954;2023-02-22T03:51:17;101009.53;;;4.80;100.00
67931;BME280;63902;52.000;5.954;2023-02-22T03:52:18;101010.38;;;4.79;100.00
67931;BME280;63902;52.000;5.954;2023-02-22T03:53:19;101006.91;;;4.78;100.00
67931;BME280;63902;52.000;5.954;2023-02-22T03:54:20;101006.09;;;4.75;100.00
67931;BME280;63902;52.000;5.954;2023-02-22T03:55:21;101007.81;;;4.77;100.00
67931;BME280;63902;52.000;5.954;2023-02-22T03:56:24;101005.19;;;4.77;100.00
67931;BME280;63902;52.000;5.954;2023-02-22T03:57:30;101007.81;;;4.77;100.00
67931;BME280;63902;52.000;5.954;2023-02-22T03:58:36;101005.22;;;4.74;100.00
67931;BME280;63902;52.000;5.954;2023-02-22T03:59:37;101007.81;;;4.76;100.00
67931;BME280;63902;52.000;5.954;2023-02-22T04:00:39;101003.41;;;4.78;100.00
67931;BME280;63902;52.000;5.954;2023-02-22T04:01:39;100999.06;;;4.77;100.00
67931;BME280;63902;52.000;5.954;2023-02-22T04:02:40;101000.81;;;4.76;100.00
67931;BME280;63902;52.000;5.954;2023-02-22T04:03:41;101001.69;;;4.75;100.00
67931;BME280;63902;52.000;5.954;2023-02-22T04:04:43;100998.19;;;4.75;100.00
67931;BME280;63902;52.000;5.954;2023-02-22T04:05:43;100999.97;;;4.74;100.00
67931;BME280;63902;52.000;5.954;2023-02-22T04:06:44;100994.72;;;4.74;100.00
67931;BME280;63902;52.000;5.954;2023-02-22T04:07:44;100986.94;;;4.66;100.00
67931;BME280;63902;52.000;5.954;2023-02-22T04:08:45;100997.28;;;4.76;100.00
67931;BME280;63902;52.000;5.954;2023-02-22T04:09:45;101001.69;;;4.75;100.00
67931;BME280;63902;52.000;5.954;2023-02-22T04:10:46;100997.34;;;4.74;100.00
67931;BME280;63902;52.000;5.954;2023-02-22T04:11:46;100993.84;;;4.72;100.00
67931;BME280;63902;52.000;5.954;2023-02-22T04:12:47;100992.09;;;4.72;100.00
67931;BME280;63902;52.000;5.954;2023-02-22T04:13:47;100992.13;;;4.69;100.00
67931;BME280;63902;52.000;5.954;2023-02-22T04:14:48;100991.25;;;4.70;100.00
67931;BME280;63902;52.000;5.954;2023-02-22T04:15:48;100987.84;;;4.64;100.00
67931;BME280;63902;52.000;5.954;2023-02-22T04:16:48;100992.19;;;4.68;100.00
67931;BME280;63902;52.000;5.954;2023-02-22T04:17:49;100999.16;;;4.67;100.00
67931;BME280;63902;52.000;5.954;2023-02-22T04:18:49;100991.31;;;4.66;100.00
67931;BME280;63902;52.000;5.954;2023-02-22T04:19:51;100996.53;;;4.67;100.00
67931;BME280;63902;52.000;5.954;2023-02-22T04:20:52;100997.44;;;4.66;100.00
67931;BME280;63902;52.000;5.954;2023-02-22T04:21:52;100994.81;;;4.66;100.00
67931;BME280;63902;52.000;5.954;2023-02-22T04:22:54;100991.31;;;4.64;100.00
67931;BME280;63902;52.000;5.954;2023-02-22T04:23:54;100985.19;;;4.65;100.00
67931;BME280;63902;52.000;5.954;2023-02-22T04:24:55;100985.19;;;4.65;100.00
67931;BME280;63902;52.000;5.954;2023-02-22T04:25:55;100964.34;;;4.53;100.00
67931;BME280;63902;52.000;5.954;2023-02-22T04:26:56;100980.88;;;4.61;100.00
67931;BME280;63902;52.000;5.954;2023-02-22T04:27:56;100985.25;;;4.62;100.00
67931;BME280;63902;52.000;5.954;2023-02-22T04:28:57;100984.41;;;4.59;100.00
67931;BME280;63902;52.000;5.954;2023-02-22T04:29:57;100975.75;;;4.52;100.00
67931;BME280;63902;52.000;5.954;2023-02-22T04:30:58;100981.84;;;4.54;100.00
67931;BME280;63902;52.000;5.954;2023-02-22T04:31:58;100985.34;;;4.53;100.00
67931;BME280;63902;52.000;5.954;2023-02-22T04:32:59;100980.09;;;4.53;100.00
67931;BME280;63902;52.000;5.954;2023-02-22T04:33:59;100977.50;;;4.52;100.00
67931;BME280;63902;52.000;5.954;2023-02-22T04:35:01;100986.25;;;4.52;100.00
67931;BME280;63902;52.000;5.954;2023-02-22T04:36:01;100978.38;;;4.51;100.00
67931;BME280;63902;52.000;5.954;2023-02-22T04:37:02;100965.41;;;4.38;100.00
67931;BME280;63902;52.000;5.954;2023-02-22T04:38:02;100976.66;;;4.48;100.00
67931;BME280;63902;52.000;5.954;2023-02-22T04:39:03;100979.31;;;4.46;100.00
67931;BME280;63902;52.000;5.954;2023-02-22T04:40:05;100977.59;;;4.45;100.00
67931;BME280;63902;52.000;5.954;2023-02-22T04:41:06;100978.47;;;4.46;100.00
67931;BME280;63902;52.000;5.954;2023-02-22T04:42:06;100983.72;;;4.46;100.00
67931;BME280;63902;52.000;5.954;2023-02-22T04:43:07;100974.06;;;4.46;100.00
67931;BME280;63902;52.000;5.954;2023-02-22T04:44:07;100978.47;;;4.46;100.00
67931;BME280;63902;52.000;5.954;2023-02-22T04:45:09;100972.34;;;4.42;100.00
67931;BME280;63902;52.000;5.954;2023-02-22T04:46:10;100974.06;;;4.45;100.00
67931;BME280;63902;52.000;5.954;2023-02-22T04:47:10;100972.34;;;4.42;100.00
67931;BME280;63902;52.000;5.954;2023-02-22T04:48:11;100973.25;;;4.41;100.00
67931;BME280;63902;52.000;5.954;2023-02-22T04:49:12;100965.41;;;4.40;100.00
67931;BME280;63902;52.000;5.954;2023-02-22T04:50:15;100975.88;;;4.41;100.00
67931;BME280;63902;52.000;5.954;2023-02-22T04:51:16;100962.81;;;4.38;100.00
67931;BME280;63902;52.000;5.954;2023-02-22T04:52:16;100961.88;;;4.41;100.00
67931;BME280;63902;52.000;5.954;2023-02-22T04:53:17;100964.56;;;4.38;100.00
67931;BME280;63902;52.000;5.954;2023-02-22T04:54:17;100967.19;;;4.38;100.00
67931;BME280;63902;52.000;5.954;2023-02-22T04:55:18;100964.56;;;4.38;100.00
67931;BME280;63902;52.000;5.954;2023-02-22T04:56:19;100959.31;;;4.38;100.00
67931;BME280;63902;52.000;5.954;2023-02-22T04:57:19;100955.81;;;4.36;100.00
67931;BME280;63902;52.000;5.954;2023-02-22T04:58:20;100958.44;;;4.36;100.00
67931;BME280;63902;52.000;5.954;2023-02-22T04:59:20;100953.19;;;4.37;100.00
67931;BME280;63902;52.000;5.954;2023-02-22T05:00:21;100953.16;;;4.39;100.00
67931;BME280;63902;52.000;5.954;2023-02-22T05:01:22;100957.53;;;4.40;100.00
67931;BME280;63902;52.000;5.954;2023-02-22T05:02:22;100956.66;;;4.39;100.00
67931;BME280;63902;52.000;5.954;2023-02-22T05:03:23;100949.66;;;4.38;100.00
67931;BME280;63902;52.000;5.954;2023-02-22T05:04:23;100946.19;;;4.36;100.00
67931;BME280;63902;52.000;5.954;2023-02-22T05:05:25;100947.94;;;4.36;100.00
67931;BME280;63902;52.000;5.954;2023-02-22T05:06:26;100945.38;;;4.33;100.00
67931;BME280;63902;52.000;5.954;2023-02-22T05:07:26;100943.63;;;4.32;100.00
67931;BME280;63902;52.000;5.954;2023-02-22T05:08:26;100939.25;;;4.32;100.00
67931;BME280;63902;52.000;5.954;2023-02-22T05:09:27;100941.84;;;4.34;100.00
67931;BME280;63902;52.000;5.954;2023-02-22T05:10:27;100935.72;;;4.33;100.00
67931;BME280;63902;52.000;5.954;2023-02-22T05:11:28;100940.06;;;4.36;100.00
67931;BME280;63902;52.000;5.954;2023-02-22T05:12:28;100938.34;;;4.35;100.00
67931;BME280;63902;52.000;5.954;2023-02-22T05:13:29;100934.88;;;4.33;100.00
67931;BME280;63902;52.000;5.954;2023-02-22T05:14:29;100935.75;;;4.32;100.00
67931;BME280;63902;52.000;5.954;2023-02-22T05:15:30;100937.50;;;4.31;100.00
67931;BME280;63902;52.000;5.954;2023-02-22T05:16:30;100940.13;;;4.31;100.00
67931;BME280;63902;52.000;5.954;2023-02-22T05:17:31;100939.25;;;4.31;100.00
67931;BME280;63902;52.000;5.954;2023-02-22T05:18:31;100935.72;;;4.33;100.00
67931;BME280;63902;52.000;5.954;2023-02-22T05:19:32;100931.34;;;4.34;100.00
67931;BME280;63902;52.000;5.954;2023-02-22T05:20:34;100934.00;;;4.31;100.00
67931;BME280;63902;52.000;5.954;2023-02-22T05:21:35;100930.47;;;4.33;100.00
67931;BME280;63902;52.000;5.954;2023-02-22T05:22:35;100937.53;;;4.30;100.00
67931;BME280;63902;52.000;5.954;2023-02-22T05:23:35;100930.59;;;4.24;100.00
67931;BME280;63902;52.000;5.954;2023-02-22T05:24:36;100929.69;;;4.26;100.00
67931;BME280;63902;52.000;5.954;2023-02-22T05:25:36;100931.44;;;4.28;100.00
67931;BME280;63902;52.000;5.954;2023-02-22T05:26:37;100925.34;;;4.24;100.00
67931;BME280;63902;52.000;5.954;2023-02-22T05:27:37;100921.88;;;4.23;100.00
67931;BME280;63902;52.000;5.954;2023-02-22T05:28:38;100914.91;;;4.21;100.00
67931;BME280;63902;52.000;5.954;2023-02-22T05:29:38;100940.16;;;4.30;100.00
67931;BME280;63902;52.000;5.954;2023-02-22T05:30:39;100930.56;;;4.29;100.00
67931;BME280;63902;52.000;5.954;2023-02-22T05:31:39;100928.84;;;4.24;100.00
67931;BME280;63902;52.000;5.954;2023-02-22T05:32:40;100924.53;;;4.20;100.00
67931;BME280;63902;52.000;5.954;2023-02-22T05:33:40;100921.09;;;4.15;100.00